Time;durP1;ratioP1;P1;durP2;ratioP2;P2;SDS_P1;SDS_P2;PMS_P1;PMS_P2;Temp;Humidity;BMP_temperature;BMP_pressure;BME280_temperature;BME280_humidity;BME280_pressure;Samples;Min_cycle;Max_cycle;Signal;HPM_P1;HPM_P2
2021/12/19 00:00:06;;;;;;;14.80;7.30;;;7.20;99.90;;;;;;5009999;28;20046;-78
2021/12/19 00:02:45;;;;;;;11.25;7.35;;;7.20;99.90;;;;;;5006950;28;20068;-79
2021/12/19 00:10:25;;;;;;;9.45;5.47;;;7.20;99.90;;;;;;5007704;28;20682;-83
2021/12/19 00:12:52;;;;;;;7.90;5.47;;;8.50;99.90;;;;;;5007630;28;20045;-83
2021/12/19 00:15:18;;;;;;;9.98;5.68;;;7.30;99.90;;;;;;5006737;28;20124;-78
2021/12/19 00:17:43;;;;;;;8.60;5.65;;;7.30;99.90;;;;;;5009919;28;20128;-81
2021/12/19 00:20:10;;;;;;;12.63;6.38;;;7.20;99.90;;;;;;5008149;28;20468;-85
2021/12/19 00:22:35;;;;;;;16.15;5.93;;;7.30;99.90;;;;;;5006860;28;20049;-80
2021/12/19 00:25:01;;;;;;;10.40;6.10;;;7.20;99.90;;;;;;5007881;28;20042;-77
2021/12/19 00:27:27;;;;;;;9.15;6.68;;;7.30;99.90;;;;;;5007645;28;20072;-77
2021/12/19 00:29:52;;;;;;;12.60;7.07;;;7.30;99.90;;;;;;5008893;28;20064;-77
2021/12/19 00:32:18;;;;;;;12.73;6.60;;;8.60;99.90;;;;;;5006920;28;20108;-76
2021/12/19 00:34:44;;;;;;;16.20;7.75;;;7.20;99.90;;;;;;5009972;28;20034;-81
2021/12/19 00:37:11;;;;;;;12.13;6.97;;;7.30;99.90;;;;;;5008406;28;20092;-83
2021/12/19 00:39:37;;;;;;;11.00;7.18;;;7.30;99.90;;;;;;5009582;28;20060;-78
2021/12/19 00:42:07;;;;;;;10.80;6.38;;;7.30;99.90;;;;;;4993386;28;20490;-80
2021/12/19 00:44:35;;;;;;;9.43;5.28;;;7.30;99.90;;;;;;4992408;28;20398;-82
2021/12/19 00:47:07;;;;;;;7.78;4.30;;;7.30;99.90;;;;;;5009416;28;20072;-78
2021/12/19 00:49:34;;;;;;;7.00;3.03;;;9.00;99.90;;;;;;4993645;28;20129;-85
2021/12/19 00:52:02;;;;;;;1.27;1.10;;;7.20;99.90;;;;;;5010844;28;20045;-86
2021/12/19 00:54:28;;;;;;;2.67;1.20;;;7.20;99.90;;;;;;5019674;28;20173;-89
2021/12/19 00:56:54;;;;;;;4.15;1.08;;;7.20;99.90;;;;;;4996229;28;20045;-86
2021/12/19 00:59:20;;;;;;;0.93;0.80;;;7.20;99.90;;;;;;4993184;28;20042;-79
2021/12/19 01:01:46;;;;;;;3.65;1.48;;;8.00;99.90;;;;;;5010831;28;20423;-79
2021/12/19 01:04:15;;;;;;;1.95;1.67;;;6.70;99.90;;;;;;5008473;28;20095;-81
2021/12/19 01:06:43;;;;;;;3.70;1.45;;;7.10;99.90;;;;;;4985013;28;20152;-75
2021/12/19 01:09:09;;;;;;;2.20;1.40;;;7.10;99.90;;;;;;5009187;28;20049;-78
2021/12/19 01:11:36;;;;;;;2.17;1.13;;;8.80;99.90;;;;;;5008534;28;20474;-80
2021/12/19 01:14:02;;;;;;;2.13;0.98;;;7.10;99.90;;;;;;4993210;28;20127;-75
2021/12/19 01:16:30;;;;;;;1.27;0.93;;;7.20;99.90;;;;;;5008477;28;20041;-78
2021/12/19 01:18:56;;;;;;;2.10;0.80;;;7.10;99.90;;;;;;4992437;28;20088;-79
2021/12/19 01:21:22;;;;;;;3.80;0.85;;;7.20;99.90;;;;;;5007895;28;20046;-78
2021/12/19 01:23:48;;;;;;;2.35;0.77;;;7.20;99.90;;;;;;4991866;28;20030;-77
2021/12/19 01:26:14;;;;;;;2.47;0.82;;;9.10;99.90;;;;;;5007894;28;20073;-78
2021/12/19 01:28:42;;;;;;;2.58;0.40;;;7.10;99.90;;;;;;5008544;28;20037;-80
2021/12/19 01:31:09;;;;;;;1.80;0.32;;;7.10;99.90;;;;;;5008489;28;20504;-76
2021/12/19 01:33:35;;;;;;;0.95;0.40;;;7.10;99.90;;;;;;4990063;28;21653;-80
2021/12/19 01:36:01;;;;;;;1.23;0.30;;;6.90;99.90;;;;;;5004581;28;20073;-79
2021/12/19 01:38:27;;;;;;;1.27;0.30;;;7.40;99.90;;;;;;4987391;28;20481;-77
2021/12/19 01:40:52;;;;;;;2.60;0.20;;;7.10;99.90;;;;;;5007827;28;20034;-77
2021/12/19 01:43:24;;;;;;;1.25;0.22;;;5.80;99.90;;;;;;5045417;28;20509;-77
2021/12/19 01:45:51;;;;;;;0.95;0.20;;;8.50;99.90;;;;;;4996114;28;20038;-78
2021/12/19 01:48:16;;;;;;;1.77;0.55;;;7.00;99.90;;;;;;5011147;28;20089;-77
2021/12/19 01:50:42;;;;;;;2.17;0.38;;;7.00;99.90;;;;;;5012384;28;20086;-82
2021/12/19 01:53:11;;;;;;;3.35;0.45;;;7.10;99.90;;;;;;5012680;28;20050;-78
2021/12/19 01:55:37;;;;;;;1.27;0.40;;;7.10;99.90;;;;;;4995804;28;20066;-78
2021/12/19 01:58:03;;;;;;;2.20;0.50;;;7.10;99.90;;;;;;4995529;28;20050;-84
2021/12/19 02:00:36;;;;;;;1.58;0.30;;;7.10;99.90;;;;;;4995407;28;20132;-78
2021/12/19 02:03:02;;;;;;;3.33;0.60;;;7.10;99.90;;;;;;5012574;28;20092;-77
2021/12/19 02:05:29;;;;;;;1.67;0.50;;;7.00;99.90;;;;;;5012812;28;20041;-82
2021/12/19 02:07:56;;;;;;;4.47;0.75;;;7.10;99.90;;;;;;5045466;28;20046;-81
2021/12/19 02:10:24;;;;;;;1.77;0.60;;;7.10;99.90;;;;;;5044943;28;20041;-79
2021/12/19 02:12:52;;;;;;;1.35;0.60;;;7.10;99.90;;;;;;5011870;28;20053;-78
2021/12/19 02:15:21;;;;;;;1.38;0.68;;;7.10;99.90;;;;;;5011205;28;20041;-78
2021/12/19 02:17:49;;;;;;;4.20;1.00;;;7.10;99.90;;;;;;5003886;28;20064;-78
2021/12/19 02:20:16;;;;;;;0.60;0.60;;;7.10;99.90;;;;;;5001538;28;20093;-84
2021/12/19 02:22:42;;;;;;;4.03;0.82;;;7.10;99.90;;;;;;5023623;28;20557;-81
2021/12/19 02:25:09;;;;;;;1.90;0.77;;;7.10;99.90;;;;;;4991018;28;20077;-77
2021/12/19 02:27:34;;;;;;;2.97;0.80;;;7.10;99.90;;;;;;5044821;28;20937;-79
2021/12/19 02:30:00;;;;;;;2.65;0.60;;;7.00;99.90;;;;;;5008944;28;20153;-84
2021/12/19 02:32:29;;;;;;;2.10;0.60;;;7.00;99.90;;;;;;5025427;28;20038;-82
2021/12/19 02:34:57;;;;;;;3.15;0.40;;;7.00;99.90;;;;;;5011635;28;20041;-76
2021/12/19 02:48:27;;;;;;;2.33;0.40;;;7.70;99.90;;;;;;5009796;28;20747;-82
2021/12/19 02:50:54;;;;;;;2.28;0.30;;;6.90;99.90;;;;;;5011340;28;20084;-77
2021/12/19 02:53:32;;;;;;;1.48;0.28;;;6.90;99.90;;;;;;4993508;28;20041;-81
2021/12/19 02:56:01;;;;;;;1.83;0.17;;;6.90;99.90;;;;;;5009158;28;20037;-79
2021/12/19 02:58:27;;;;;;;0.82;0.20;;;6.90;99.90;;;;;;5010519;28;20065;-78
2021/12/19 03:00:53;;;;;;;0.40;0.30;;;7.20;99.90;;;;;;4995021;28;20069;-77
2021/12/19 03:03:18;;;;;;;1.67;0.50;;;6.80;99.90;;;;;;4994537;28;20123;-78
2021/12/19 03:05:44;;;;;;;2.80;0.30;;;6.80;99.90;;;;;;5010249;28;20064;-78
2021/12/19 03:08:11;;;;;;;0.55;0.30;;;6.80;99.90;;;;;;4994722;28;20590;-76
2021/12/19 03:11:14;;;;;;;1.15;0.20;;;6.50;99.90;;;;;;5022464;28;20050;-82
2021/12/19 03:13:48;;;;;;;1.10;0.30;;;8.40;99.90;;;;;;5008495;28;20494;-79
2021/12/19 03:18:58;;;;;;;1.20;0.25;;;7.00;99.90;;;;;;5003789;28;20132;-80
2021/12/19 03:21:25;;;;;;;1.25;0.43;;;6.60;99.90;;;;;;4993916;28;20113;-78
2021/12/19 03:23:51;;;;;;;1.05;0.40;;;6.50;99.90;;;;;;4995238;28;20117;-82
2021/12/19 03:26:17;;;;;;;1.73;0.40;;;6.60;99.90;;;;;;5009412;28;20489;-78
2021/12/19 03:28:43;;;;;;;2.58;0.60;;;6.60;99.90;;;;;;5027845;28;20049;-77
2021/12/19 03:31:09;;;;;;;4.57;1.17;;;6.60;99.90;;;;;;4994364;28;20049;-78
2021/12/19 03:33:35;;;;;;;3.03;0.50;;;6.60;99.90;;;;;;5026494;28;20053;-78
2021/12/19 03:36:03;;;;;;;1.33;0.30;;;6.70;99.90;;;;;;5011119;28;20038;-78
2021/12/19 03:38:29;;;;;;;4.18;1.10;;;6.70;99.90;;;;;;5010669;28;20045;-82
2021/12/19 03:41:12;;;;;;;1.27;0.38;;;6.60;99.90;;;;;;4999255;28;20044;-77
2021/12/19 03:43:37;;;;;;;2.42;0.70;;;6.70;99.90;;;;;;5042354;28;20084;-77
2021/12/19 03:46:03;;;;;;;1.70;0.90;;;6.60;99.90;;;;;;5010973;28;20065;-78
2021/12/19 03:48:29;;;;;;;2.17;1.13;;;6.90;99.90;;;;;;5009652;28;20389;-77
2021/12/19 03:50:54;;;;;;;8.63;1.50;;;6.60;99.90;;;;;;5011381;28;20453;-79
2021/12/19 03:53:22;;;;;;;2.58;1.48;;;6.60;99.90;;;;;;5013714;28;20049;-77
2021/12/19 03:55:48;;;;;;;4.25;1.20;;;7.80;99.90;;;;;;5010536;28;20642;-84
2021/12/19 03:58:14;;;;;;;4.07;1.05;;;6.70;99.90;;;;;;5010237;28;20041;-79
2021/12/19 04:00:42;;;;;;;2.67;0.77;;;6.60;99.90;;;;;;5036264;28;20486;-79
2021/12/19 04:03:10;;;;;;;1.92;0.47;;;6.90;99.90;;;;;;5014039;28;20045;-78
2021/12/19 04:05:38;;;;;;;1.73;0.57;;;6.40;99.90;;;;;;5009081;28;20524;-80
2021/12/19 04:08:05;;;;;;;5.05;1.08;;;6.70;99.90;;;;;;5034861;28;20485;-79
2021/12/19 04:10:31;;;;;;;1.55;0.73;;;6.60;99.90;;;;;;4992878;28;20514;-82
2021/12/19 04:12:57;;;;;;;5.18;1.10;;;6.60;99.90;;;;;;5014641;28;20042;-80
2021/12/19 04:15:23;;;;;;;1.70;0.70;;;6.60;99.90;;;;;;5008858;28;20038;-78
2021/12/19 04:17:49;;;;;;;4.13;0.82;;;6.60;99.90;;;;;;5009447;28;20046;-80
2021/12/19 04:20:15;;;;;;;5.25;0.90;;;6.60;99.90;;;;;;5009947;28;20034;-83
2021/12/19 04:22:45;;;;;;;10.07;1.88;;;7.20;99.90;;;;;;4984704;28;20046;-78
2021/12/19 04:25:11;;;;;;;4.70;1.40;;;6.50;99.90;;;;;;5009653;28;20474;-79
2021/12/19 04:27:37;;;;;;;6.35;1.70;;;6.90;99.90;;;;;;5002815;28;20050;-79
2021/12/19 04:30:05;;;;;;;4.82;2.45;;;6.60;99.90;;;;;;5009159;28;20042;-77
2021/12/19 04:32:36;;;;;;;7.88;2.13;;;6.70;99.90;;;;;;5013088;28;20038;-79
2021/12/19 04:35:02;;;;;;;6.05;2.33;;;6.60;99.90;;;;;;5009661;28;20042;-76
2021/12/19 04:38:03;;;;;;;15.68;3.00;;;6.70;99.90;;;;;;5002002;28;20037;-77
2021/12/19 04:51:25;;;;;;;11.32;2.92;;;7.80;99.90;;;;;;5008672;28;20391;-78
2021/12/19 04:56:46;;;;;;;18.25;3.53;;;6.40;99.90;;;;;;5010118;28;20400;-82
2021/12/19 05:15:15;;;;;;;20.27;5.03;;;6.70;99.90;;;;;;5008578;28;20292;-76
2021/12/19 05:17:41;;;;;;;17.52;5.10;;;6.80;99.90;;;;;;5011704;28;20049;-77
2021/12/19 05:20:14;;;;;;;21.08;4.30;;;6.80;99.90;;;;;;5015395;28;20048;-79
2021/12/19 05:22:47;;;;;;;20.70;5.20;;;6.80;99.90;;;;;;5010681;28;20042;-80
2021/12/19 05:25:17;;;;;;;24.95;5.85;;;7.10;99.90;;;;;;5009546;28;20067;-80
2021/12/19 05:27:52;;;;;;;16.65;6.88;;;6.80;99.90;;;;;;5020133;28;20030;-78
2021/12/19 05:30:18;;;;;;;22.65;6.90;;;6.80;99.90;;;;;;5012600;28;20040;-80
2021/12/19 05:32:47;;;;;;;18.45;7.15;;;6.80;99.90;;;;;;5011710;28;20064;-77
2021/12/19 05:35:16;;;;;;;23.58;7.43;;;6.80;99.90;;;;;;5009158;28;20433;-79
2021/12/19 05:45:55;;;;;;;25.30;9.77;;;7.00;99.90;;;;;;5041428;28;20046;-78
2021/12/19 05:48:21;;;;;;;27.10;9.20;;;6.90;99.90;;;;;;5007965;28;20050;-77
2021/12/19 05:50:46;;;;;;;28.08;10.18;;;6.90;99.90;;;;;;5000540;28;20037;-80
2021/12/19 05:53:12;;;;;;;16.67;9.45;;;6.90;99.90;;;;;;5010632;28;20042;-78
2021/12/19 05:55:39;;;;;;;23.92;9.13;;;6.90;99.90;;;;;;5013133;28;20088;-80
2021/12/19 05:58:05;;;;;;;26.23;9.15;;;6.90;99.90;;;;;;5035659;28;20088;-81
2021/12/19 06:00:32;;;;;;;26.35;8.95;;;6.90;99.90;;;;;;5014300;28;20045;-81
2021/12/19 06:02:59;;;;;;;24.52;8.07;;;6.90;99.90;;;;;;5008703;28;20121;-77
2021/12/19 06:05:25;;;;;;;29.08;9.32;;;6.90;99.90;;;;;;5007450;28;20046;-76
2021/12/19 06:07:51;;;;;;;18.45;7.13;;;6.90;99.90;;;;;;5024342;28;20060;-79
2021/12/19 06:10:17;;;;;;;17.10;6.25;;;6.70;99.90;;;;;;5012720;28;20076;-77
2021/12/19 06:12:44;;;;;;;17.73;5.85;;;6.90;99.90;;;;;;4997120;28;20042;-77
2021/12/19 06:15:10;;;;;;;28.80;8.35;;;6.90;99.90;;;;;;4991096;28;20138;-82
2021/12/19 06:17:41;;;;;;;34.33;11.07;;;6.90;99.90;;;;;;4991798;28;20053;-78
2021/12/19 06:20:09;;;;;;;18.52;6.90;;;6.90;99.90;;;;;;5005112;28;20041;-77
2021/12/19 06:22:34;;;;;;;19.45;6.25;;;6.90;99.90;;;;;;5038267;28;20049;-77
2021/12/19 06:25:01;;;;;;;18.58;5.10;;;6.80;99.90;;;;;;4991996;28;20045;-77
2021/12/19 06:27:26;;;;;;;12.63;4.63;;;6.90;99.90;;;;;;5009933;28;20469;-79
2021/12/19 06:29:52;;;;;;;12.25;4.88;;;6.80;99.90;;;;;;5017479;28;20069;-79
2021/12/19 06:32:18;;;;;;;22.25;5.88;;;6.90;99.90;;;;;;5013636;28;20070;-78
2021/12/19 06:34:43;;;;;;;20.63;6.18;;;6.90;99.90;;;;;;5012519;28;20129;-85
2021/12/19 06:37:10;;;;;;;31.83;14.63;;;6.80;99.90;;;;;;5009895;28;20045;-77
2021/12/19 06:39:37;;;;;;;20.75;6.90;;;6.90;99.90;;;;;;4997073;28;20074;-78
2021/12/19 06:42:05;;;;;;;17.45;4.55;;;6.90;99.90;;;;;;5011712;28;20120;-82
2021/12/19 06:44:31;;;;;;;13.50;5.55;;;6.90;99.90;;;;;;5011823;28;20046;-78
2021/12/19 06:46:57;;;;;;;18.13;5.38;;;6.90;99.90;;;;;;5011788;28;20121;-78
2021/12/19 06:49:22;;;;;;;16.80;5.15;;;6.90;99.90;;;;;;4994177;28;20124;-79
2021/12/19 06:51:48;;;;;;;17.52;5.65;;;6.90;99.90;;;;;;5021443;28;20045;-82
2021/12/19 06:54:13;;;;;;;23.95;5.90;;;6.90;99.90;;;;;;5013084;28;20046;-86
2021/12/19 06:56:39;;;;;;;19.08;4.90;;;8.30;99.90;;;;;;5010738;28;20088;-78
2021/12/19 06:59:05;;;;;;;19.80;4.85;;;6.90;99.90;;;;;;4995040;28;20445;-77
2021/12/19 07:01:31;;;;;;;25.73;6.07;;;6.90;99.90;;;;;;5007327;28;20045;-77
2021/12/19 07:03:56;;;;;;;18.27;4.35;;;6.90;99.90;;;;;;5010540;28;20038;-79
2021/12/19 07:06:22;;;;;;;15.70;4.80;;;6.90;99.90;;;;;;5012082;28;20092;-80
2021/12/19 07:08:48;;;;;;;12.77;3.55;;;6.90;99.90;;;;;;5011629;28;20054;-79
2021/12/19 07:11:14;;;;;;;24.15;4.10;;;8.00;99.90;;;;;;5040799;28;20046;-78
2021/12/19 07:13:39;;;;;;;11.35;2.85;;;6.90;99.90;;;;;;5011201;28;20038;-78
2021/12/19 07:16:06;;;;;;;14.90;3.53;;;6.90;99.90;;;;;;4996939;28;20034;-79
2021/12/19 07:18:32;;;;;;;16.23;3.72;;;6.90;99.90;;;;;;5035754;28;20082;-81
2021/12/19 07:20:58;;;;;;;10.65;3.83;;;6.90;99.90;;;;;;5010763;28;20080;-79
2021/12/19 07:23:24;;;;;;;7.40;3.30;;;6.30;99.90;;;;;;5050732;28;20732;-80
2021/12/19 07:25:50;;;;;;;10.68;2.80;;;6.90;99.90;;;;;;5024088;28;20809;-77
2021/12/19 07:28:16;;;;;;;10.05;2.90;;;6.90;99.90;;;;;;5038307;28;20041;-77
2021/12/19 07:30:42;;;;;;;11.25;3.83;;;6.90;99.90;;;;;;5025098;28;20107;-78
2021/12/19 07:33:09;;;;;;;11.48;3.40;;;6.90;99.90;;;;;;5038811;28;20385;-78
2021/12/19 07:35:38;;;;;;;12.82;4.63;;;6.90;99.90;;;;;;5037614;28;20831;-85
2021/12/19 07:38:09;;;;;;;14.13;2.83;;;6.90;99.90;;;;;;5007686;28;20120;-80
2021/12/19 07:40:36;;;;;;;10.68;3.10;;;7.50;99.90;;;;;;5028712;28;20049;-81
2021/12/19 07:43:08;;;;;;;11.43;2.60;;;6.90;99.90;;;;;;4999092;28;20087;-80
2021/12/19 07:45:34;;;;;;;7.88;2.50;;;6.90;99.90;;;;;;4993552;28;20049;-78
2021/12/19 07:48:00;;;;;;;14.48;2.92;;;6.90;99.90;;;;;;4998632;28;20045;-78
2021/12/19 07:50:27;;;;;;;23.23;4.05;;;6.90;99.90;;;;;;4993857;28;20567;-85
2021/12/19 07:52:53;;;;;;;19.20;3.25;;;6.90;99.90;;;;;;4985786;28;20369;-81
2021/12/19 07:55:23;;;;;;;9.57;2.90;;;6.90;99.90;;;;;;5010466;28;20046;-78
2021/12/19 07:57:49;;;;;;;11.77;2.67;;;6.80;99.90;;;;;;5029928;28;20066;-81
2021/12/19 08:00:16;;;;;;;16.13;3.28;;;6.90;99.90;;;;;;5009771;28;20753;-79
2021/12/19 08:02:45;;;;;;;15.43;3.40;;;6.60;99.90;;;;;;5010418;28;20045;-78
2021/12/19 08:05:11;;;;;;;16.10;3.35;;;6.90;99.90;;;;;;5001136;28;20069;-79
2021/12/19 08:07:38;;;;;;;17.92;3.45;;;6.90;99.90;;;;;;5002730;28;20413;-78
2021/12/19 08:12:34;;;;;;;16.83;3.00;;;6.40;99.90;;;;;;5018378;28;20057;-80
2021/12/19 08:14:59;;;;;;;18.55;3.75;;;7.00;99.90;;;;;;5016966;28;20045;-79
2021/12/19 08:17:26;;;;;;;12.30;2.95;;;7.00;99.90;;;;;;5010398;28;20113;-79
2021/12/19 08:19:52;;;;;;;19.48;3.58;;;8.00;99.90;;;;;;5012551;28;20030;-78
2021/12/19 08:22:18;;;;;;;17.00;3.28;;;7.00;99.90;;;;;;4992689;28;20469;-82
2021/12/19 08:24:46;;;;;;;15.50;2.92;;;6.90;99.90;;;;;;5017347;28;20393;-81
2021/12/19 08:27:12;;;;;;;14.18;2.80;;;8.60;99.90;;;;;;5001507;28;20120;-78
2021/12/19 08:29:39;;;;;;;13.18;2.85;;;7.00;99.90;;;;;;5034687;28;20065;-80
2021/12/19 08:32:05;;;;;;;18.42;2.65;;;7.00;99.90;;;;;;5019345;28;20045;-85
2021/12/19 08:34:31;;;;;;;20.60;2.10;;;7.10;99.90;;;;;;4318294;28;10000709;-78
2021/12/19 08:36:57;;;;;;;12.20;2.30;;;7.10;99.90;;;;;;5012793;28;20042;-81
2021/12/19 08:39:23;;;;;;;14.25;2.28;;;7.10;99.90;;;;;;4997994;28;20088;-80
2021/12/19 08:41:49;;;;;;;9.25;2.28;;;7.10;99.90;;;;;;5001117;28;20045;-78
2021/12/19 08:44:15;;;;;;;15.05;2.40;;;7.30;99.90;;;;;;5002315;28;20033;-79
2021/12/19 08:46:41;;;;;;;7.28;1.98;;;7.10;99.90;;;;;;5009036;28;20090;-80
2021/12/19 08:49:08;;;;;;;7.57;1.65;;;7.10;99.90;;;;;;5013887;28;20868;-82
2021/12/19 08:51:34;;;;;;;10.52;2.20;;;7.10;99.90;;;;;;5010057;28;20767;-79
2021/12/19 08:54:01;;;;;;;9.18;1.30;;;7.10;99.90;;;;;;5010551;28;20037;-78
2021/12/19 08:56:28;;;;;;;8.88;1.88;;;7.00;99.90;;;;;;4993553;28;20069;-78
2021/12/19 08:58:55;;;;;;;9.95;1.63;;;7.20;99.90;;;;;;5010124;28;20033;-79
2021/12/19 09:01:20;;;;;;;12.50;1.70;;;7.00;99.90;;;;;;5001693;28;20125;-79
2021/12/19 09:03:46;;;;;;;8.85;2.40;;;7.10;99.90;;;;;;4999838;28;20098;-80
2021/12/19 09:06:12;;;;;;;7.88;1.92;;;7.10;99.90;;;;;;4990414;28;20108;-83
2021/12/19 09:08:38;;;;;;;11.93;1.83;;;7.10;99.90;;;;;;4994858;28;20100;-78
2021/12/19 09:11:05;;;;;;;14.90;2.08;;;6.90;99.90;;;;;;5009571;28;20042;-79
2021/12/19 09:13:30;;;;;;;14.43;3.47;;;7.10;99.90;;;;;;5027249;28;20042;-77
2021/12/19 09:15:56;;;;;;;13.02;4.25;;;7.10;99.90;;;;;;5009613;28;20501;-78
2021/12/19 09:18:22;;;;;;;10.85;2.13;;;7.10;99.90;;;;;;5001782;28;20037;-78
2021/12/19 09:20:49;;;;;;;12.00;2.60;;;7.10;99.90;;;;;;5007099;28;20464;-80
2021/12/19 09:23:17;;;;;;;14.45;2.30;;;9.10;99.90;;;;;;4991845;28;20124;-78
2021/12/19 09:25:42;;;;;;;12.73;2.50;;;7.10;99.90;;;;;;5030611;28;20054;-80
2021/12/19 09:28:08;;;;;;;13.75;2.22;;;7.20;99.90;;;;;;4990868;28;20161;-79
2021/12/19 09:30:36;;;;;;;12.10;2.03;;;7.20;99.90;;;;;;5005972;28;20478;-82
2021/12/19 09:33:02;;;;;;;15.45;3.03;;;7.20;99.90;;;;;;4996419;28;20046;-81
2021/12/19 09:35:28;;;;;;;12.60;1.95;;;7.20;99.90;;;;;;5010852;28;20037;-79
2021/12/19 09:37:54;;;;;;;12.05;2.05;;;7.20;99.90;;;;;;5005000;28;20060;-78
2021/12/19 09:40:23;;;;;;;12.55;2.47;;;7.20;99.90;;;;;;4989933;28;20038;-86
2021/12/19 09:42:59;;;;;;;16.20;1.88;;;7.20;99.90;;;;;;5008260;28;20489;-76
2021/12/19 09:45:25;;;;;;;14.90;2.10;;;7.20;99.90;;;;;;4988717;28;20467;-79
2021/12/19 09:47:51;;;;;;;18.30;2.72;;;7.20;99.90;;;;;;4992283;28;20072;-77
2021/12/19 09:50:16;;;;;;;14.95;2.15;;;7.20;99.90;;;;;;5007566;28;20112;-80
2021/12/19 09:52:42;;;;;;;16.88;2.75;;;7.20;99.90;;;;;;5014864;28;20191;-75
2021/12/19 09:55:08;;;;;;;10.63;2.13;;;7.20;99.90;;;;;;5021159;28;20493;-75
2021/12/19 09:57:34;;;;;;;12.63;2.28;;;7.30;99.90;;;;;;5023245;28;20704;-76
2021/12/19 10:00:00;;;;;;;14.80;2.35;;;7.30;99.90;;;;;;5003632;28;20045;-76
2021/12/19 10:02:25;;;;;;;9.27;2.58;;;7.30;99.90;;;;;;5044178;28;20126;-77
2021/12/19 10:04:51;;;;;;;16.23;4.13;;;7.30;99.90;;;;;;5041456;28;20041;-81
2021/12/19 10:07:29;;;;;;;16.75;2.90;;;7.30;99.90;;;;;;5034822;28;20104;-79
2021/12/19 10:10:03;;;;;;;16.80;2.83;;;7.30;99.90;;;;;;5027735;28;20041;-81
2021/12/19 10:12:48;;;;;;;15.25;2.55;;;7.30;99.90;;;;;;5044254;28;20091;-78
2021/12/19 10:15:35;;;;;;;15.85;3.20;;;7.30;99.90;;;;;;5055833;28;20127;-77
2021/12/19 10:18:04;;;;;;;18.02;3.38;;;7.30;99.90;;;;;;5029609;28;20029;-80
2021/12/19 10:20:59;;;;;;;18.80;4.38;;;7.30;99.90;;;;;;5011512;28;20448;-77
2021/12/19 10:23:30;;;;;;;18.73;2.88;;;7.40;99.90;;;;;;5059201;28;20050;-81
2021/12/19 10:26:01;;;;;;;14.70;3.30;;;7.30;99.90;;;;;;5039114;28;20048;-79
2021/12/19 10:28:29;;;;;;;15.45;3.45;;;7.40;99.90;;;;;;5013349;28;20482;-76
2021/12/19 10:30:56;;;;;;;18.50;3.50;;;7.20;99.90;;;;;;5011461;28;20123;-82
2021/12/19 10:33:26;;;;;;;20.42;3.00;;;7.40;99.90;;;;;;5011284;28;20050;-81
2021/12/19 10:35:58;;;;;;;19.63;3.88;;;7.40;99.90;;;;;;5011231;28;20052;-82
2021/12/19 10:38:36;;;;;;;20.02;3.38;;;7.40;99.90;;;;;;5012281;28;20390;-80
2021/12/19 10:41:06;;;;;;;16.33;3.83;;;7.40;99.90;;;;;;5010869;28;20081;-78
2021/12/19 10:43:33;;;;;;;17.48;2.75;;;7.40;99.90;;;;;;5011825;28;20481;-82
2021/12/19 10:46:01;;;;;;;22.25;4.60;;;7.40;99.90;;;;;;5009860;28;20045;-77
2021/12/19 19:06:29;;;;;;;27.50;5.03;;;6.90;99.90;;;;;;4996186;28;21913;-79
2021/12/19 19:08:59;;;;;;;32.83;5.22;;;6.90;99.90;;;;;;5010239;28;20112;-77
2021/12/19 19:11:26;;;;;;;30.65;4.97;;;6.70;99.90;;;;;;4978477;28;20049;-78
2021/12/19 19:13:56;;;;;;;32.08;5.03;;;6.90;99.90;;;;;;4998457;28;20128;-80
2021/12/19 19:16:24;;;;;;;37.00;4.90;;;6.90;99.90;;;;;;4988761;28;20042;-79
2021/12/19 19:18:50;;;;;;;43.15;5.70;;;6.90;99.90;;;;;;4987830;28;20514;-79
2021/12/19 19:21:16;;;;;;;38.60;5.32;;;6.60;99.90;;;;;;5011282;28;20042;-79
2021/12/19 19:23:42;;;;;;;33.03;5.97;;;6.90;99.90;;;;;;5011885;28;20440;-79
2021/12/19 19:26:07;;;;;;;31.15;7.28;;;6.90;99.90;;;;;;5023647;28;20061;-79
2021/12/19 19:28:35;;;;;;;24.55;5.10;;;6.60;99.90;;;;;;4994106;28;20456;-80
2021/12/19 19:31:18;;;;;;;31.47;5.87;;;6.80;99.90;;;;;;4910320;28;10000450;-80
2021/12/19 19:33:44;;;;;;;38.38;5.30;;;6.90;99.90;;;;;;4990534;28;20251;-80
2021/12/19 19:36:10;;;;;;;35.08;4.50;;;7.10;99.90;;;;;;4991861;28;20061;-80
2021/12/19 19:38:49;;;;;;;24.95;5.10;;;6.50;99.90;;;;;;5007911;28;20100;-79
2021/12/19 19:51:37;;;;;;;32.33;6.28;;;6.90;99.90;;;;;;5022838;28;20053;-78
2021/12/19 19:54:05;;;;;;;31.38;5.45;;;6.90;99.90;;;;;;5004891;28;20064;-78
2021/12/19 19:56:30;;;;;;;32.55;5.22;;;6.80;99.90;;;;;;5022787;28;20077;-79
2021/12/19 19:58:56;;;;;;;25.23;4.43;;;6.40;99.90;;;;;;5021180;28;20081;-79
2021/12/19 20:01:22;;;;;;;32.50;4.78;;;6.90;99.90;;;;;;5023180;28;20045;-80
2021/12/19 20:03:48;;;;;;;34.58;6.38;;;6.80;99.90;;;;;;5022633;28;20409;-80
2021/12/19 20:06:13;;;;;;;40.50;5.55;;;8.40;99.90;;;;;;5037319;28;20451;-81
2021/12/19 20:08:39;;;;;;;32.17;4.72;;;6.80;99.90;;;;;;4680234;28;9999765;-80
2021/12/19 20:13:47;;;;;;;33.97;5.43;;;6.80;99.90;;;;;;5094401;22;10001940;-80
2021/12/19 20:16:16;;;;;;;30.50;5.32;;;6.50;99.90;;;;;;5013196;28;20056;-79
2021/12/19 20:18:41;;;;;;;30.08;4.75;;;6.70;99.90;;;;;;5004270;28;20046;-80
2021/12/19 20:21:07;;;;;;;37.45;5.63;;;8.50;99.90;;;;;;5004118;28;20045;-78
2021/12/19 20:23:33;;;;;;;36.13;6.40;;;8.40;99.90;;;;;;5000742;28;20052;-79
2021/12/19 20:25:58;;;;;;;36.00;5.68;;;6.20;99.90;;;;;;4992310;28;20042;-80
2021/12/19 20:28:25;;;;;;;30.88;5.75;;;6.70;99.90;;;;;;5008204;28;20071;-76
2021/12/19 20:30:52;;;;;;;31.95;5.20;;;6.50;99.90;;;;;;5016895;28;20095;-80
2021/12/19 20:33:19;;;;;;;42.00;6.72;;;6.70;99.90;;;;;;5001533;28;20077;-80
2021/12/19 20:35:46;;;;;;;38.28;6.78;;;6.70;99.90;;;;;;5000188;28;20084;-79
2021/12/19 20:38:16;;;;;;;22.38;4.53;;;6.80;99.90;;;;;;5031558;28;20045;-81
2021/12/19 20:40:43;;;;;;;27.88;5.18;;;6.70;99.90;;;;;;5019334;28;20044;-78
2021/12/19 20:43:09;;;;;;;38.38;5.53;;;7.80;99.90;;;;;;5027316;28;20111;-79
2021/12/19 20:45:35;;;;;;;32.30;5.07;;;8.10;99.90;;;;;;5022857;28;20041;-80
2021/12/19 20:48:04;;;;;;;32.63;5.45;;;6.60;99.90;;;;;;5023234;28;20041;-78
2021/12/19 20:50:31;;;;;;;32.28;6.45;;;6.50;99.90;;;;;;5043220;28;20046;-79
2021/12/19 20:52:57;;;;;;;25.95;5.13;;;8.30;99.90;;;;;;5027271;28;20112;-79
2021/12/19 20:55:24;;;;;;;28.30;4.68;;;6.50;99.90;;;;;;5021744;28;20560;-79
2021/12/19 20:57:49;;;;;;;43.97;5.90;;;6.50;99.90;;;;;;5044343;28;20045;-79
2021/12/19 21:00:17;;;;;;;44.97;6.85;;;6.60;99.90;;;;;;5041234;28;20263;-79
2021/12/19 21:02:44;;;;;;;32.42;6.75;;;6.70;99.90;;;;;;5058730;28;20727;-77
2021/12/19 21:05:12;;;;;;;39.67;6.10;;;7.00;99.90;;;;;;5038101;28;20084;-79
2021/12/19 21:07:39;;;;;;;31.63;6.60;;;6.60;99.90;;;;;;5023001;28;20056;-79
2021/12/19 21:10:09;;;;;;;35.15;6.70;;;8.00;99.90;;;;;;5043523;28;20033;-78
2021/12/19 21:12:44;;;;;;;27.95;5.47;;;6.70;99.90;;;;;;5040405;28;20080;-78
2021/12/19 21:20:32;;;;;;;32.13;5.35;;;6.70;99.90;;;;;;5018526;28;20132;-80
2021/12/19 21:22:58;;;;;;;39.88;6.13;;;6.70;99.90;;;;;;5020010;28;20080;-79
2021/12/19 21:25:24;;;;;;;33.53;4.97;;;6.70;99.90;;;;;;5010137;28;20104;-80
2021/12/19 21:27:50;;;;;;;33.70;5.55;;;7.50;99.90;;;;;;5014281;28;20176;-80
2021/12/19 21:30:17;;;;;;;50.53;6.63;;;6.60;99.90;;;;;;5016509;28;20128;-80
2021/12/19 21:32:43;;;;;;;37.88;6.28;;;6.60;99.90;;;;;;5001670;28;20057;-80
2021/12/19 21:35:13;;;;;;;39.13;6.53;;;6.60;99.90;;;;;;5003769;28;20049;-79
2021/12/19 21:40:25;;;;;;;40.70;7.68;;;6.60;99.90;;;;;;5020379;28;20103;-80
2021/12/19 21:42:51;;;;;;;33.45;7.15;;;6.60;99.90;;;;;;5054462;28;20049;-80
2021/12/19 21:45:16;;;;;;;36.70;6.57;;;6.60;99.90;;;;;;5041293;28;20049;-79
2021/12/19 21:47:42;;;;;;;37.30;6.88;;;6.60;99.90;;;;;;5052840;28;20095;-80
2021/12/19 21:50:09;;;;;;;33.53;5.57;;;6.60;99.90;;;;;;5006557;28;20048;-80
2021/12/19 21:52:37;;;;;;;33.40;5.15;;;6.60;99.90;;;;;;5040982;28;20045;-80
2021/12/19 21:55:05;;;;;;;38.40;5.90;;;6.70;99.90;;;;;;5022076;28;20096;-80
2021/12/19 21:57:31;;;;;;;38.33;6.10;;;6.60;99.90;;;;;;5032728;28;20103;-80
2021/12/19 21:59:57;;;;;;;37.65;6.20;;;7.80;99.90;;;;;;5026492;28;20492;-80
2021/12/19 22:02:23;;;;;;;40.65;6.40;;;6.60;99.90;;;;;;5043883;28;20093;-80
2021/12/19 22:04:49;;;;;;;50.67;7.50;;;7.90;99.90;;;;;;5042585;28;20472;-80
2021/12/19 22:07:15;;;;;;;33.92;5.05;;;6.60;99.90;;;;;;5043605;28;20476;-79
2021/12/19 22:09:42;;;;;;;38.47;5.93;;;6.60;99.90;;;;;;5026807;28;20049;-80
2021/12/19 22:17:36;;;;;;;41.72;10.52;;;6.60;99.90;;;;;;5023318;28;20057;-79
2021/12/19 22:20:03;;;;;;;35.25;6.93;;;6.60;99.90;;;;;;5009171;28;20768;-80
2021/12/19 22:22:29;;;;;;;39.17;6.82;;;6.60;99.90;;;;;;5059645;28;20049;-80
2021/12/19 22:24:55;;;;;;;34.25;7.28;;;6.60;99.90;;;;;;5028039;28;20046;-81
2021/12/19 22:27:22;;;;;;;40.38;9.48;;;6.60;99.90;;;;;;5023724;28;20405;-79
2021/12/19 22:29:48;;;;;;;43.75;8.07;;;6.60;99.90;;;;;;5044102;28;20049;-79
2021/12/19 22:32:13;;;;;;;44.03;8.00;;;7.50;99.90;;;;;;5030039;28;20049;-80
2021/12/19 22:34:39;;;;;;;35.38;8.15;;;8.00;99.90;;;;;;5016855;28;20030;-80